createdAt,value
2017-06-24T00:00:05.531Z,9.10
2017-06-24T00:02:34.575Z,8.73
2017-06-24T00:05:03.015Z,8.25
2017-06-24T00:07:32.039Z,7.78
2017-06-24T00:10:00.401Z,8.57
2017-06-24T00:12:28.700Z,9.20
2017-06-24T00:14:57.057Z,9.25
2017-06-24T00:17:25.365Z,9.07
2017-06-24T00:19:53.658Z,9.00
2017-06-24T00:22:21.947Z,8.40
2017-06-24T00:24:51.019Z,9.18
2017-06-24T00:27:19.312Z,8.40
2017-06-24T00:29:48.365Z,7.80
2017-06-24T00:32:17.472Z,8.18
2017-06-24T00:34:45.752Z,8.40
2017-06-24T00:37:14.043Z,8.45
2017-06-24T00:39:42.324Z,9.10
2017-06-24T00:42:10.605Z,8.63
2017-06-24T00:44:38.891Z,9.30
2017-06-24T00:47:07.173Z,9.60
2017-06-24T00:49:36.236Z,8.65
2017-06-24T00:52:04.504Z,8.80
2017-06-24T00:54:32.804Z,9.05
2017-06-24T00:57:01.075Z,9.45
2017-06-24T00:59:29.367Z,9.32
2017-06-24T01:01:57.644Z,8.70
2017-06-24T01:04:25.936Z,8.98
2017-06-24T01:06:54.208Z,9.35
2017-06-24T01:09:22.487Z,9.85
2017-06-24T01:11:50.779Z,9.88
2017-06-24T01:14:19.816Z,9.18
2017-06-24T01:16:48.119Z,8.43
2017-06-24T01:19:16.376Z,9.40
2017-06-24T01:21:44.677Z,10.15
2017-06-24T01:24:12.951Z,9.27
2017-06-24T01:26:41.239Z,9.50
2017-06-24T01:29:09.511Z,9.55
2017-06-24T01:31:37.817Z,9.10
2017-06-24T01:34:06.855Z,9.27
2017-06-24T01:36:35.125Z,9.32
2017-06-24T01:39:03.404Z,7.80
2017-06-24T01:41:31.670Z,8.75
2017-06-24T01:43:59.956Z,9.02
2017-06-24T01:46:28.227Z,9.68
2017-06-24T01:48:56.513Z,9.25
2017-06-24T01:51:24.783Z,9.18
2017-06-24T01:53:53.072Z,9.18
2017-06-24T01:56:21.348Z,9.30
2017-06-24T01:58:49.635Z,9.98
2017-06-24T02:01:17.924Z,9.00
2017-06-24T02:03:46.223Z,8.95
2017-06-24T02:06:14.499Z,9.02
2017-06-24T02:08:42.787Z,8.80
2017-06-24T02:11:11.077Z,8.88
2017-06-24T02:13:40.116Z,8.20
2017-06-24T02:16:08.407Z,8.45
2017-06-24T02:18:36.670Z,9.23
2017-06-24T02:21:04.982Z,8.00
2017-06-24T02:23:33.256Z,7.85
2017-06-24T02:26:01.547Z,8.00
2017-06-24T02:28:29.823Z,6.90
2017-06-24T02:30:58.121Z,7.93
2017-06-24T02:33:27.155Z,7.22
2017-06-24T02:35:55.427Z,7.93
2017-06-24T02:38:23.715Z,7.75
2017-06-24T02:40:51.980Z,8.30
2017-06-24T02:43:20.268Z,9.50
2017-06-24T02:45:48.540Z,9.20
2017-06-24T02:48:16.827Z,8.88
2017-06-24T02:50:45.103Z,8.57
2017-06-24T02:53:13.392Z,7.93
2017-06-24T02:55:41.663Z,8.73
2017-06-24T02:58:09.955Z,8.55
2017-06-24T03:00:38.223Z,9.25
2017-06-24T03:03:06.501Z,9.10
2017-06-24T03:05:34.788Z,9.05
2017-06-24T03:08:03.052Z,7.80
2017-06-24T03:10:31.346Z,8.55
2017-06-24T03:12:59.619Z,8.52
2017-06-24T03:15:27.919Z,8.98
2017-06-24T03:17:56.187Z,7.90
2017-06-24T03:20:25.239Z,8.27
2017-06-24T03:22:53.516Z,8.88
2017-06-24T03:25:21.806Z,8.80
2017-06-24T03:27:50.074Z,8.35
2017-06-24T03:30:18.363Z,8.77
2017-06-24T03:32:46.712Z,8.23
2017-06-24T03:35:15.004Z,8.55
2017-06-24T03:37:43.279Z,7.80
2017-06-24T03:40:11.598Z,8.10
2017-06-24T03:42:39.880Z,9.05
2017-06-24T03:45:08.909Z,8.75
2017-06-24T03:47:37.198Z,8.75
2017-06-24T03:50:05.464Z,9.07
2017-06-24T03:52:33.751Z,9.00
2017-06-24T03:55:02.027Z,7.50
2017-06-24T03:57:30.311Z,8.50
2017-06-24T03:59:58.571Z,8.00
2017-06-24T04:02:26.899Z,8.60
2017-06-24T04:04:55.263Z,8.52
2017-06-24T04:07:23.553Z,8.10
2017-06-24T04:09:51.823Z,9.32
2017-06-24T04:12:20.119Z,7.78
2017-06-24T04:14:49.158Z,9.80
2017-06-24T04:17:17.431Z,8.35
2017-06-24T04:19:45.741Z,9.73
2017-06-24T04:22:14.007Z,9.18
2017-06-24T04:24:42.304Z,8.30
2017-06-24T04:27:10.573Z,8.40
2017-06-24T04:29:38.855Z,8.77
2017-06-24T04:32:07.127Z,8.52
2017-06-24T04:34:35.420Z,8.85
2017-06-24T04:37:03.679Z,8.90
2017-06-24T04:39:31.960Z,8.23
2017-06-24T04:42:00.233Z,8.65
2017-06-24T04:44:28.517Z,8.05
2017-06-24T04:46:56.784Z,9.90
2017-06-24T04:49:25.052Z,8.00
2017-06-24T04:51:53.335Z,8.63
2017-06-24T04:54:21.603Z,8.68
2017-06-24T04:56:49.899Z,8.05
2017-06-24T04:59:18.182Z,7.95
2017-06-24T05:01:46.470Z,9.02
2017-06-24T05:04:14.736Z,7.30
2017-06-24T05:06:43.018Z,7.70
2017-06-24T05:09:11.289Z,8.30
2017-06-24T05:11:39.585Z,8.27
2017-06-24T05:14:07.855Z,8.57
2017-06-24T05:16:36.139Z,9.02
2017-06-24T05:19:05.170Z,8.38
2017-06-24T05:21:33.443Z,9.00
2017-06-24T05:24:01.731Z,9.32
2017-06-24T05:26:30.008Z,9.60
2017-06-24T05:28:58.300Z,8.50
2017-06-24T05:31:26.567Z,8.52
2017-06-24T05:33:54.871Z,9.65
2017-06-24T05:36:23.161Z,8.32
2017-06-24T05:38:51.459Z,8.93
2017-06-24T05:41:20.511Z,9.73
2017-06-24T05:43:48.807Z,8.90
2017-06-24T05:46:17.089Z,8.60
2017-06-24T05:48:45.374Z,8.23
2017-06-24T05:51:13.651Z,8.50
2017-06-24T05:53:41.924Z,7.73
2017-06-24T05:56:10.211Z,8.13
2017-06-24T05:58:39.243Z,7.37
2017-06-24T06:01:07.887Z,7.50
2017-06-24T06:03:36.163Z,7.90
2017-06-24T06:06:05.223Z,7.83
2017-06-24T06:08:33.499Z,7.70
2017-06-24T06:11:01.778Z,7.40
2017-06-24T06:13:30.056Z,7.77
2017-06-24T06:15:58.347Z,7.33
2017-06-24T06:18:26.620Z,7.00
2017-06-24T06:20:54.895Z,8.10
2017-06-24T06:23:23.181Z,7.10
2017-06-24T06:25:51.448Z,7.43
2017-06-24T06:28:19.748Z,6.80
2017-06-24T06:30:48.031Z,6.90
2017-06-24T06:33:16.340Z,6.47
2017-06-24T06:35:44.699Z,7.93
2017-06-24T06:38:13.760Z,6.97
2017-06-24T06:40:42.054Z,6.80
2017-06-24T06:43:10.303Z,7.50
2017-06-24T06:45:38.592Z,6.40
2017-06-24T06:48:06.863Z,6.80
2017-06-24T06:50:35.175Z,6.57
2017-06-24T06:53:04.490Z,5.93
2017-06-24T06:55:33.535Z,5.93
2017-06-24T06:58:01.814Z,6.23
2017-06-24T07:00:30.095Z,6.33
2017-06-24T07:02:58.362Z,6.30
2017-06-24T07:05:26.647Z,5.77
2017-06-24T07:07:54.911Z,5.70
2017-06-24T07:10:23.186Z,6.73
2017-06-24T07:12:51.479Z,5.33
2017-06-24T07:15:19.752Z,6.03
2017-06-24T07:17:48.036Z,5.70
2017-06-24T07:20:16.312Z,6.63
2017-06-24T07:22:44.607Z,5.73
2017-06-24T07:25:12.867Z,5.30
2017-06-24T07:27:41.141Z,5.83
2017-06-24T07:30:09.412Z,5.60
2017-06-24T07:32:37.690Z,6.27
2017-06-24T07:35:05.990Z,6.10
2017-06-24T07:37:34.299Z,6.23
2017-06-24T07:40:02.575Z,6.03
2017-06-24T07:42:30.845Z,5.30
2017-06-24T07:44:59.143Z,6.00
2017-06-24T07:47:27.414Z,5.00
2017-06-24T07:49:55.703Z,5.50
2017-06-24T07:52:23.991Z,5.43
2017-06-24T07:54:52.291Z,5.10
2017-06-24T07:57:20.563Z,6.20
2017-06-24T07:59:48.858Z,5.20
2017-06-24T08:02:17.136Z,6.40
2017-06-24T08:04:45.419Z,5.87
2017-06-24T08:07:13.699Z,6.30
2017-06-24T08:09:41.968Z,7.20
2017-06-24T08:12:10.250Z,6.90
2017-06-24T08:14:38.520Z,6.83
2017-06-24T08:17:06.819Z,8.05
2017-06-24T08:19:35.871Z,7.82
2017-06-24T08:22:04.174Z,7.90
2017-06-24T08:24:32.443Z,7.60
2017-06-24T08:27:00.739Z,7.32
2017-06-24T08:29:29.012Z,6.87
2017-06-24T08:31:57.291Z,7.93
2017-06-24T08:34:26.351Z,7.97
2017-06-24T08:36:54.631Z,7.43
2017-06-24T08:39:22.925Z,7.25
2017-06-24T08:41:51.208Z,6.43
2017-06-24T08:44:19.496Z,7.90
2017-06-24T08:46:48.540Z,7.20
2017-06-24T08:49:16.830Z,7.30
2017-06-24T08:51:45.099Z,6.15
2017-06-24T08:54:13.398Z,6.35
2017-06-24T08:56:41.671Z,5.85
2017-06-24T08:59:09.943Z,5.62
2017-06-24T09:01:38.236Z,6.53
2017-06-24T09:04:06.740Z,6.30
2017-06-24T09:06:35.796Z,6.87
2017-06-24T09:09:04.098Z,7.20
2017-06-24T09:11:32.387Z,5.60
2017-06-24T09:14:01.447Z,6.60
2017-06-24T09:16:29.736Z,6.57
2017-06-24T09:18:58.035Z,6.90
2017-06-24T09:21:26.377Z,6.60
2017-06-24T09:23:54.651Z,6.53
2017-06-24T09:26:22.959Z,5.33
2017-06-24T09:28:51.233Z,6.13
2017-06-24T09:31:19.529Z,5.80
2017-06-24T09:33:47.799Z,6.37
2017-06-24T09:36:16.066Z,6.57
2017-06-24T09:38:44.350Z,6.03
2017-06-24T09:41:12.634Z,6.07
2017-06-24T09:43:40.920Z,6.57
2017-06-24T09:46:09.955Z,5.87
2017-06-24T09:48:38.247Z,6.33
2017-06-24T09:51:06.963Z,5.50
2017-06-24T09:53:35.236Z,6.20
2017-06-24T09:56:03.511Z,5.73
2017-06-24T09:58:31.807Z,6.27
2017-06-24T10:01:00.857Z,6.50
2017-06-24T10:03:29.144Z,5.73
2017-06-24T10:05:57.413Z,5.70
2017-06-24T10:08:25.692Z,5.70
2017-06-24T10:10:53.963Z,6.40
2017-06-24T10:13:22.270Z,6.03
2017-06-24T10:15:50.539Z,6.73
2017-06-24T10:18:18.830Z,7.40
2017-06-24T10:20:47.107Z,6.90
2017-06-24T10:23:15.379Z,5.63
2017-06-24T10:25:43.679Z,4.97
2017-06-24T10:28:12.743Z,7.00
2017-06-24T10:30:41.028Z,5.93
2017-06-24T10:33:09.312Z,5.67
2017-06-24T10:35:37.619Z,6.20
2017-06-24T10:38:05.894Z,5.90
2017-06-24T10:40:34.165Z,5.17
2017-06-24T10:43:03.231Z,6.30
2017-06-24T10:45:31.539Z,6.67
2017-06-24T10:47:59.849Z,6.23
2017-06-24T10:50:28.172Z,5.87
2017-06-24T10:52:56.456Z,6.13
2017-06-24T10:55:24.734Z,6.00
2017-06-24T10:57:53.044Z,5.10
2017-06-24T11:00:21.352Z,6.73
2017-06-24T11:02:49.773Z,5.70
2017-06-24T11:05:18.251Z,5.57
2017-06-24T11:07:46.843Z,5.73
2017-06-24T11:10:15.896Z,5.60
2017-06-24T11:12:44.167Z,5.80
2017-06-24T11:15:12.453Z,5.40
2017-06-24T11:17:41.136Z,5.83
2017-06-24T11:20:09.439Z,5.60
2017-06-24T11:22:37.702Z,5.07
2017-06-24T11:25:06.003Z,4.90
2017-06-24T11:27:35.037Z,5.87
2017-06-24T11:30:03.439Z,5.57
2017-06-24T11:32:31.760Z,6.17
2017-06-24T11:35:00.019Z,5.80
2017-06-24T11:37:28.329Z,5.10
2017-06-24T11:39:56.606Z,6.57
2017-06-24T11:42:24.915Z,5.77
2017-06-24T11:44:53.183Z,5.67
2017-06-24T11:47:21.522Z,5.70
2017-06-24T11:49:49.803Z,5.13
2017-06-24T11:52:18.102Z,5.60
2017-06-24T11:54:46.395Z,6.27
2017-06-24T11:57:14.704Z,5.90
2017-06-24T11:59:42.977Z,5.63
2017-06-24T12:02:11.299Z,6.00
2017-06-24T12:04:39.651Z,8.73
2017-06-24T12:07:07.931Z,6.83
2017-06-24T12:09:36.246Z,6.57
2017-06-24T12:12:04.888Z,5.53
2017-06-24T12:14:33.221Z,5.80
2017-06-24T12:17:01.693Z,5.60
2017-06-24T12:19:29.999Z,5.50
2017-06-24T12:21:58.263Z,6.90
2017-06-24T12:24:26.584Z,6.60
2017-06-24T12:26:54.858Z,6.43
2017-06-24T12:29:23.203Z,6.17
2017-06-24T12:31:51.476Z,7.27
2017-06-24T12:34:19.792Z,6.90
2017-06-24T12:36:48.068Z,6.97
2017-06-24T12:39:16.344Z,6.13
2017-06-24T12:41:44.651Z,6.23
2017-06-24T12:44:13.691Z,6.03
2017-06-24T12:46:41.984Z,7.50
2017-06-24T12:49:10.260Z,6.17
2017-06-24T12:51:38.548Z,6.00
2017-06-24T12:54:06.827Z,6.30
2017-06-24T12:56:35.115Z,6.40
2017-06-24T12:59:03.390Z,6.67
2017-06-24T13:01:31.692Z,6.10
2017-06-24T13:03:59.984Z,6.63
2017-06-24T13:06:29.080Z,6.30
2017-06-24T13:08:57.359Z,7.10
2017-06-24T13:11:25.630Z,6.20
2017-06-24T13:13:53.922Z,5.70
2017-06-24T13:16:22.188Z,6.20
2017-06-24T13:18:50.479Z,6.57
2017-06-24T13:21:18.747Z,5.40
2017-06-24T13:23:47.039Z,5.63
2017-06-24T13:26:15.308Z,6.10
2017-06-24T13:28:43.608Z,5.70
2017-06-24T13:31:11.881Z,5.93
2017-06-24T13:33:40.169Z,4.93
2017-06-24T13:36:08.440Z,5.50
2017-06-24T13:38:36.720Z,5.90
2017-06-24T13:41:04.998Z,5.80
2017-06-24T13:43:34.916Z,5.20
2017-06-24T13:46:03.179Z,5.00
2017-06-24T13:48:31.444Z,5.40
2017-06-24T13:50:59.735Z,5.80
2017-06-24T13:53:28.012Z,5.20
2017-06-24T13:55:56.298Z,5.80
2017-06-24T13:58:24.563Z,5.10
2017-06-24T14:00:52.877Z,6.00
2017-06-24T14:03:21.144Z,5.27
2017-06-24T14:05:49.436Z,5.57
2017-06-24T14:08:17.713Z,5.90
2017-06-24T14:10:46.823Z,5.33
2017-06-24T14:13:15.870Z,5.40
2017-06-24T14:15:44.155Z,5.53
2017-06-24T14:18:12.419Z,6.43
2017-06-24T14:20:40.728Z,6.30
2017-06-24T14:23:09.009Z,6.20
2017-06-24T14:25:37.284Z,5.87
2017-06-24T14:28:05.600Z,5.17
2017-06-24T14:30:33.842Z,5.20
2017-06-24T14:33:02.139Z,5.50
2017-06-24T14:35:30.410Z,5.27
2017-06-24T14:37:58.696Z,5.37
2017-06-24T14:40:26.969Z,5.20
2017-06-24T14:42:56.027Z,5.60
2017-06-24T14:45:24.305Z,4.73
2017-06-24T14:47:52.582Z,6.50
2017-06-24T14:50:20.869Z,5.22
2017-06-24T14:52:49.177Z,5.63
2017-06-24T14:55:18.222Z,5.43
2017-06-24T14:57:46.543Z,5.90
2017-06-24T15:00:15.588Z,5.00
2017-06-24T15:02:43.920Z,5.17
2017-06-24T15:05:12.215Z,5.40
2017-06-24T15:07:40.488Z,5.80
2017-06-24T15:10:08.785Z,5.97
2017-06-24T15:12:37.055Z,6.07
2017-06-24T15:15:05.348Z,4.73
2017-06-24T15:17:33.620Z,5.10
2017-06-24T15:20:01.909Z,6.37
2017-06-24T15:22:30.180Z,5.87
2017-06-24T15:24:58.475Z,4.87
2017-06-24T15:27:26.751Z,5.40
2017-06-24T15:29:55.063Z,5.35
2017-06-24T15:32:24.099Z,5.43
2017-06-24T15:34:52.367Z,5.30
2017-06-24T15:37:20.659Z,5.18
2017-06-24T15:39:48.939Z,5.70
2017-06-24T15:42:17.229Z,5.20
2017-06-24T15:44:45.500Z,5.70
2017-06-24T15:47:13.787Z,5.47
2017-06-24T15:49:42.060Z,5.93
2017-06-24T15:52:10.344Z,5.10
2017-06-24T15:54:38.612Z,5.47
2017-06-24T15:57:06.887Z,5.73
2017-06-24T15:59:35.162Z,5.50
2017-06-24T16:02:03.452Z,5.50
2017-06-24T16:04:31.715Z,5.43
2017-06-24T16:07:00.012Z,5.60
2017-06-24T16:09:28.289Z,5.03
2017-06-24T16:11:56.548Z,5.93
2017-06-24T16:14:24.836Z,5.13
2017-06-24T16:16:53.107Z,5.47
2017-06-24T16:19:21.411Z,5.87
2017-06-24T16:21:50.450Z,5.47
2017-06-24T16:24:18.743Z,4.87
2017-06-24T16:26:47.032Z,5.50
2017-06-24T16:29:15.328Z,5.15
2017-06-24T16:31:43.614Z,5.65
2017-06-24T16:34:11.906Z,5.37
2017-06-24T16:36:40.950Z,6.33
2017-06-24T16:39:09.231Z,6.22
2017-06-24T16:41:37.500Z,5.47
2017-06-24T16:44:05.816Z,4.70
2017-06-24T16:46:34.111Z,4.85
2017-06-24T16:49:03.162Z,5.73
2017-06-24T16:51:31.469Z,6.70
2017-06-24T16:53:59.759Z,5.50
2017-06-24T16:56:28.819Z,5.90
2017-06-24T16:58:57.091Z,5.50
2017-06-24T17:01:25.379Z,5.60
2017-06-24T17:03:53.653Z,7.37
2017-06-24T17:06:21.939Z,5.57
2017-06-24T17:08:50.204Z,5.70
2017-06-24T17:11:18.494Z,5.53
2017-06-24T17:13:46.774Z,5.50
2017-06-24T17:16:15.065Z,5.37
2017-06-24T17:18:44.112Z,5.40
2017-06-24T17:21:12.403Z,4.82
2017-06-24T17:23:40.686Z,4.90
2017-06-24T17:26:08.970Z,5.75
2017-06-24T17:28:37.259Z,5.40
2017-06-24T17:31:05.535Z,6.03
2017-06-24T17:33:33.825Z,5.80
2017-06-24T17:36:02.871Z,5.33
2017-06-24T17:38:31.167Z,5.97
2017-06-24T17:40:59.440Z,6.20
2017-06-24T17:43:27.720Z,5.85
2017-06-24T17:45:55.996Z,5.00
2017-06-24T17:48:24.287Z,5.20
2017-06-24T17:50:52.573Z,5.15
2017-06-24T17:53:20.863Z,5.45
2017-06-24T17:55:49.908Z,5.40
2017-06-24T17:58:18.219Z,4.93
2017-06-24T18:00:46.500Z,5.28
2017-06-24T18:03:15.544Z,4.80
2017-06-24T18:05:43.839Z,4.90
2017-06-24T18:08:12.122Z,5.05
2017-06-24T18:10:40.415Z,5.37
2017-06-24T18:13:08.696Z,5.22
2017-06-24T18:15:36.996Z,6.28
2017-06-24T18:18:06.039Z,5.18
2017-06-24T18:20:34.336Z,4.75
2017-06-24T18:23:02.611Z,5.05
2017-06-24T18:25:30.910Z,4.95
2017-06-24T18:27:59.951Z,5.20
2017-06-24T18:30:28.242Z,5.07
2017-06-24T18:32:56.543Z,4.78
2017-06-24T18:35:24.852Z,4.60
2017-06-24T18:37:53.131Z,5.07
2017-06-24T18:40:22.183Z,4.20
2017-06-24T18:42:50.479Z,4.75
2017-06-24T18:45:18.755Z,4.12
2017-06-24T18:47:47.151Z,5.43
2017-06-24T18:50:16.195Z,4.62
2017-06-24T18:52:44.489Z,4.80
2017-06-24T18:55:12.783Z,4.40
2017-06-24T18:57:41.072Z,4.75
2017-06-24T19:00:10.110Z,4.62
2017-06-24T19:02:38.405Z,4.30
2017-06-24T19:05:06.667Z,4.80
2017-06-24T19:07:34.971Z,5.05
2017-06-24T19:10:03.251Z,4.78
2017-06-24T19:12:31.523Z,4.53
2017-06-24T19:14:59.832Z,4.70
2017-06-24T19:17:28.878Z,4.87
2017-06-24T19:19:57.176Z,4.70
2017-06-24T19:23:03.098Z,4.97
2017-06-24T19:25:31.384Z,4.85
2017-06-24T19:27:59.655Z,5.05
2017-06-24T19:30:27.948Z,4.40
2017-06-24T19:32:56.212Z,4.10
2017-06-24T19:35:24.514Z,5.28
2017-06-24T19:37:52.794Z,5.15
2017-06-24T19:40:21.078Z,5.07
2017-06-24T19:42:49.347Z,4.65
2017-06-24T19:45:17.636Z,5.20
2017-06-24T19:47:45.903Z,4.50
2017-06-24T19:50:14.205Z,4.22
2017-06-24T19:52:42.479Z,4.60
2017-06-24T19:55:10.748Z,4.78
2017-06-24T19:57:39.032Z,4.55
2017-06-24T20:00:07.387Z,4.50
2017-06-24T20:02:35.688Z,4.30
2017-06-24T20:05:03.960Z,3.67
2017-06-24T20:07:32.235Z,4.32
2017-06-24T20:10:00.517Z,4.10
2017-06-24T20:12:28.805Z,4.37
2017-06-24T20:14:57.072Z,4.95
2017-06-24T20:17:25.352Z,4.80
2017-06-24T20:19:53.620Z,5.15
2017-06-24T20:22:21.928Z,4.70
2017-06-24T20:24:50.198Z,5.35
2017-06-24T20:27:18.566Z,4.62
2017-06-24T20:29:46.837Z,3.85
2017-06-24T20:32:15.099Z,5.00
2017-06-24T20:34:43.415Z,5.55
2017-06-24T20:37:11.703Z,4.78
2017-06-24T20:39:40.769Z,5.03
2017-06-24T20:42:09.035Z,4.22
2017-06-24T20:44:37.339Z,5.40
2017-06-24T20:47:06.379Z,5.53
2017-06-24T20:49:34.683Z,5.55
2017-06-24T20:52:02.948Z,5.57
2017-06-24T20:54:31.235Z,5.57
2017-06-24T20:56:59.505Z,5.45
2017-06-24T20:59:27.793Z,4.90
2017-06-24T21:01:56.061Z,5.30
2017-06-24T21:04:24.334Z,5.15
2017-06-24T21:06:52.620Z,6.05
2017-06-24T21:09:20.887Z,6.22
2017-06-24T21:11:49.207Z,5.12
2017-06-24T21:14:18.236Z,5.70
2017-06-24T21:16:46.533Z,6.90
2017-06-24T21:19:14.884Z,5.90
2017-06-24T21:21:43.167Z,6.65
2017-06-24T21:24:11.435Z,6.30
2017-06-24T21:26:39.724Z,6.75
2017-06-24T21:29:07.996Z,6.20
2017-06-24T21:31:36.286Z,7.20
2017-06-24T21:34:04.558Z,6.25
2017-06-24T21:36:32.827Z,5.85
2017-06-24T21:39:01.119Z,6.85
2017-06-24T21:41:29.382Z,6.85
2017-06-24T21:43:57.663Z,6.35
2017-06-24T21:46:25.935Z,6.20
2017-06-24T21:48:54.223Z,7.80
2017-06-24T21:51:22.490Z,6.68
2017-06-24T21:53:50.755Z,7.32
2017-06-24T21:56:19.051Z,6.50
2017-06-24T21:58:47.327Z,8.00
2017-06-24T22:01:15.616Z,7.37
2017-06-24T22:03:43.887Z,7.65
2017-06-24T22:06:12.176Z,8.18
2017-06-24T22:08:40.436Z,8.48
2017-06-24T22:11:08.732Z,9.00
2017-06-24T22:13:37.008Z,8.13
2017-06-24T22:16:05.291Z,9.70
2017-06-24T22:18:33.570Z,8.70
2017-06-24T22:21:01.863Z,9.00
2017-06-24T22:23:30.139Z,8.48
2017-06-24T22:25:58.415Z,9.07
2017-06-24T22:28:26.708Z,9.70
2017-06-24T22:30:54.984Z,9.02
2017-06-24T22:33:23.273Z,8.98
2017-06-24T22:35:52.315Z,8.57
2017-06-24T22:38:20.603Z,8.90
2017-06-24T22:40:49.822Z,7.93
2017-06-24T22:43:18.108Z,8.10
2017-06-24T22:45:46.383Z,7.05
2017-06-24T22:48:14.666Z,7.07
2017-06-24T22:50:42.936Z,7.78
2017-06-24T22:53:11.224Z,7.25
2017-06-24T22:55:40.261Z,7.87
2017-06-24T22:58:08.543Z,7.15
2017-06-24T23:00:36.811Z,7.00
2017-06-24T23:03:05.083Z,6.45
2017-06-24T23:05:33.373Z,7.07
2017-06-24T23:08:01.639Z,6.97
2017-06-24T23:10:29.926Z,6.28
2017-06-24T23:12:58.191Z,6.65
2017-06-24T23:15:26.482Z,6.10
2017-06-24T23:17:54.891Z,5.72
2017-06-24T23:20:23.171Z,5.78
2017-06-24T23:22:51.437Z,5.68
2017-06-24T23:25:19.719Z,6.85
2017-06-24T23:27:47.987Z,6.70
2017-06-24T23:30:16.300Z,7.03
2017-06-24T23:32:44.567Z,5.85
2017-06-24T23:35:12.844Z,5.95
2017-06-24T23:37:41.128Z,6.18
2017-06-24T23:40:10.187Z,5.95
2017-06-24T23:42:38.467Z,7.05
2017-06-24T23:45:06.740Z,6.65
2017-06-24T23:47:35.027Z,6.18
2017-06-24T23:50:03.304Z,6.57
2017-06-24T23:52:31.605Z,6.10
2017-06-24T23:54:59.866Z,6.00
2017-06-24T23:57:28.153Z,7.45
2017-06-24T23:59:56.419Z,6.28
